Time;durP1;ratioP1;P1;durP2;ratioP2;P2;SDS_P1;SDS_P2;PMS_P1;PMS_P2;Temp;Humidity;BMP_temperature;BMP_pressure;BME280_temperature;BME280_humidity;BME280_pressure;Samples;Min_cycle;Max_cycle;Signal;HPM_P1;HPM_P2
2022/07/22 00:00:13;;;;;;;19.02;4.45;;;13.90;99.90;;;;;;5033195;28;20030;-69
2022/07/22 00:02:39;;;;;;;19.25;4.65;;;14.00;99.90;;;;;;5034044;28;20331;-69
2022/07/22 00:05:05;;;;;;;19.30;3.67;;;14.00;99.90;;;;;;5032938;28;20021;-69
2022/07/22 00:07:31;;;;;;;17.98;4.80;;;14.10;99.90;;;;;;5034424;28;20022;-69
2022/07/22 00:09:56;;;;;;;14.13;4.82;;;14.10;99.90;;;;;;5036983;28;20066;-69
2022/07/22 00:12:22;;;;;;;21.52;5.30;;;14.20;99.90;;;;;;5037075;28;20048;-69
2022/07/22 00:14:48;;;;;;;28.25;5.95;;;14.20;99.90;;;;;;5036742;28;20485;-69
2022/07/22 00:17:13;;;;;;;37.20;7.88;;;14.30;99.90;;;;;;5036710;28;20030;-70
2022/07/22 00:19:39;;;;;;;27.73;7.28;;;14.40;99.90;;;;;;5037368;28;20037;-70
2022/07/22 00:22:04;;;;;;;29.05;7.70;;;14.40;99.90;;;;;;5036761;28;20025;-70
2022/07/22 00:24:30;;;;;;;39.38;7.93;;;14.50;99.90;;;;;;5036637;28;20032;-70
2022/07/22 00:26:56;;;;;;;37.58;8.02;;;14.50;99.90;;;;;;5036718;28;20075;-69
2022/07/22 00:29:21;;;;;;;39.70;7.68;;;14.50;99.90;;;;;;5037187;28;20024;-69
2022/07/22 00:31:47;;;;;;;41.70;8.27;;;14.60;99.90;;;;;;5036830;28;20100;-69
2022/07/22 00:34:12;;;;;;;47.95;8.32;;;14.60;99.90;;;;;;5036556;28;20080;-69
2022/07/22 00:36:38;;;;;;;46.20;8.45;;;14.60;99.90;;;;;;5036439;28;20037;-69
2022/07/22 00:39:04;;;;;;;36.42;7.78;;;14.60;99.90;;;;;;5036726;28;20571;-69
2022/07/22 00:41:30;;;;;;;31.95;8.25;;;14.70;99.90;;;;;;5036433;28;20029;-69
2022/07/22 00:44:01;;;;;;;54.03;9.20;;;14.70;99.90;;;;;;5036106;28;20084;-69
2022/07/22 00:46:28;;;;;;;42.63;9.80;;;14.60;99.90;;;;;;5036213;28;20105;-69
2022/07/22 00:48:54;;;;;;;49.90;9.52;;;14.70;99.90;;;;;;5036388;28;20041;-69
2022/07/22 00:51:21;;;;;;;43.83;8.95;;;14.70;99.90;;;;;;5036107;28;20022;-69
2022/07/22 00:53:47;;;;;;;50.13;11.32;;;14.70;99.90;;;;;;5036297;28;20025;-69
2022/07/22 00:56:13;;;;;;;45.35;9.73;;;14.70;99.90;;;;;;5036367;28;20104;-69
2022/07/22 00:58:39;;;;;;;43.00;8.77;;;14.50;99.90;;;;;;5036141;28;20543;-69
2022/07/22 01:01:05;;;;;;;49.33;8.63;;;14.50;99.90;;;;;;5036169;28;20525;-69
2022/07/22 01:03:31;;;;;;;38.60;9.18;;;14.50;99.90;;;;;;5035796;28;20030;-69
2022/07/22 01:05:57;;;;;;;44.47;9.38;;;14.50;99.90;;;;;;5035934;28;20022;-69
2022/07/22 01:08:23;;;;;;;47.80;9.55;;;14.50;99.90;;;;;;5035973;28;20032;-69
2022/07/22 01:10:49;;;;;;;29.13;8.85;;;14.40;99.90;;;;;;5035736;28;20021;-69
2022/07/22 01:13:14;;;;;;;39.30;9.40;;;14.40;99.90;;;;;;5059955;23;20061;-66
2022/07/22 01:15:40;;;;;;;43.53;9.30;;;14.30;99.90;;;;;;5034817;28;20041;-66
2022/07/22 01:18:05;;;;;;;43.70;8.50;;;14.40;99.90;;;;;;5035239;28;20432;-66
2022/07/22 01:20:31;;;;;;;50.88;10.25;;;14.40;99.90;;;;;;5035431;28;20064;-66
2022/07/22 01:22:57;;;;;;;39.17;9.98;;;14.40;99.90;;;;;;5035454;28;20025;-66
2022/07/22 01:25:23;;;;;;;58.10;11.20;;;14.40;99.90;;;;;;5035262;28;20038;-66
2022/07/22 01:27:48;;;;;;;43.22;9.75;;;14.40;99.90;;;;;;5035377;28;20021;-66
2022/07/22 01:30:14;;;;;;;38.30;9.90;;;14.40;99.90;;;;;;5035075;28;20025;-66
2022/07/22 01:32:40;;;;;;;40.00;9.80;;;14.40;99.90;;;;;;5035590;28;20029;-66
2022/07/22 01:35:06;;;;;;;66.25;11.70;;;14.40;99.90;;;;;;5035085;28;20020;-66
2022/07/22 01:37:33;;;;;;;45.92;10.23;;;14.40;99.90;;;;;;5035719;28;20029;-66
2022/07/22 01:39:59;;;;;;;35.90;9.95;;;14.40;99.90;;;;;;5035690;28;20026;-66
2022/07/22 01:42:25;;;;;;;49.03;8.82;;;14.40;99.90;;;;;;5035039;28;20040;-66
2022/07/22 01:44:51;;;;;;;53.42;9.35;;;14.40;99.90;;;;;;5034764;28;20420;-66
2022/07/22 01:47:17;;;;;;;42.95;10.77;;;14.40;99.90;;;;;;5034874;28;20026;-66
2022/07/22 01:49:42;;;;;;;43.05;10.43;;;14.30;99.90;;;;;;5034983;28;20483;-66
2022/07/22 01:52:08;;;;;;;63.47;10.63;;;14.40;99.90;;;;;;5035056;28;20025;-66
2022/07/22 01:54:34;;;;;;;32.80;9.13;;;14.40;99.90;;;;;;5034802;28;20109;-66
2022/07/22 01:57:00;;;;;;;49.42;9.18;;;14.40;99.90;;;;;;5034726;28;20041;-66
2022/07/22 01:59:25;;;;;;;44.67;8.98;;;14.40;99.90;;;;;;5035070;28;20029;-66
2022/07/22 02:01:51;;;;;;;50.08;9.05;;;14.40;99.90;;;;;;5034794;28;20030;-66
2022/07/22 02:04:16;;;;;;;39.10;9.70;;;14.40;99.90;;;;;;5034927;28;20072;-66
2022/07/22 02:06:42;;;;;;;42.45;9.02;;;14.40;99.90;;;;;;5034611;28;20057;-66
2022/07/22 02:09:07;;;;;;;39.30;10.00;;;14.30;99.90;;;;;;5034548;28;20477;-66
2022/07/22 02:11:33;;;;;;;48.90;9.48;;;14.40;99.90;;;;;;5034453;28;20367;-66
2022/07/22 02:13:59;;;;;;;38.70;9.00;;;14.40;99.90;;;;;;5034376;28;20075;-66
2022/07/22 02:16:25;;;;;;;55.00;9.93;;;14.40;99.90;;;;;;5034665;28;20116;-66
2022/07/22 02:18:50;;;;;;;43.63;8.65;;;14.40;99.90;;;;;;5034411;28;20035;-66
2022/07/22 02:21:16;;;;;;;44.20;9.57;;;14.40;99.90;;;;;;5034260;28;20411;-66
2022/07/22 02:23:42;;;;;;;54.30;8.68;;;14.40;99.90;;;;;;5034326;28;20051;-66
2022/07/22 02:26:07;;;;;;;35.60;9.05;;;14.40;99.90;;;;;;5034971;28;20028;-66
2022/07/22 02:28:33;;;;;;;51.95;10.45;;;14.30;99.90;;;;;;5034199;28;20029;-66
2022/07/22 02:30:59;;;;;;;42.25;11.35;;;14.30;99.90;;;;;;5033765;28;20116;-66
2022/07/22 02:33:24;;;;;;;46.95;9.23;;;14.40;99.90;;;;;;5034228;28;20031;-66
2022/07/22 02:35:50;;;;;;;40.05;10.93;;;14.40;99.90;;;;;;5034073;28;20079;-66
2022/07/22 02:38:15;;;;;;;41.80;9.02;;;14.30;99.90;;;;;;5034074;28;20079;-66
2022/07/22 02:40:42;;;;;;;61.10;10.80;;;14.30;99.90;;;;;;5034062;28;20025;-66
2022/07/22 02:43:07;;;;;;;40.60;9.43;;;14.40;99.90;;;;;;5034634;28;20026;-66
2022/07/22 02:45:33;;;;;;;43.70;9.07;;;14.30;99.90;;;;;;5033794;28;20032;-66
2022/07/22 02:47:59;;;;;;;45.42;8.30;;;14.30;99.90;;;;;;5034053;28;20025;-66
2022/07/22 02:50:25;;;;;;;40.50;8.07;;;14.40;99.90;;;;;;5034129;28;20025;-66
2022/07/22 02:52:51;;;;;;;53.88;9.00;;;14.40;99.90;;;;;;5033762;28;20017;-66
2022/07/22 02:55:18;;;;;;;54.95;10.88;;;14.30;99.90;;;;;;5034292;28;20026;-66
2022/07/22 02:57:44;;;;;;;52.72;9.90;;;14.40;99.90;;;;;;5033668;28;20036;-66
2022/07/22 03:00:11;;;;;;;49.08;8.75;;;14.40;99.90;;;;;;5033699;28;20021;-66
2022/07/22 03:02:38;;;;;;;42.30;9.18;;;14.40;99.90;;;;;;5033830;28;20026;-66
2022/07/22 03:05:05;;;;;;;47.25;9.05;;;14.40;99.90;;;;;;5033504;28;20056;-66
2022/07/22 03:07:31;;;;;;;53.47;9.65;;;14.40;99.90;;;;;;5033821;28;20487;-66
2022/07/22 03:09:57;;;;;;;49.95;8.48;;;14.30;99.90;;;;;;5033565;28;20053;-66
2022/07/22 03:12:22;;;;;;;40.78;7.53;;;14.30;99.90;;;;;;5033700;28;20052;-66
2022/07/22 03:14:48;;;;;;;50.13;8.25;;;14.30;99.90;;;;;;5033381;28;20026;-66
2022/07/22 03:17:13;;;;;;;65.18;9.45;;;14.30;99.90;;;;;;5033528;28;20551;-66
2022/07/22 03:19:39;;;;;;;52.15;8.75;;;14.30;99.90;;;;;;5033504;28;20021;-66
2022/07/22 03:22:05;;;;;;;38.58;8.13;;;14.30;99.90;;;;;;5033421;28;20370;-66
2022/07/22 03:24:30;;;;;;;46.05;7.32;;;14.30;99.90;;;;;;5033204;28;20027;-66
2022/07/22 03:26:56;;;;;;;37.42;8.25;;;14.30;99.90;;;;;;5033278;28;20531;-66
2022/07/22 03:29:21;;;;;;;58.17;8.90;;;14.30;99.90;;;;;;5033353;28;20432;-66
2022/07/22 03:31:47;;;;;;;45.58;7.50;;;14.30;99.90;;;;;;5033608;28;20450;-66
2022/07/22 03:34:12;;;;;;;51.80;7.60;;;14.20;99.90;;;;;;5033361;28;20072;-66
2022/07/22 03:36:38;;;;;;;36.17;7.50;;;14.20;99.90;;;;;;5033380;28;20028;-66
2022/07/22 03:39:04;;;;;;;42.03;7.70;;;14.20;99.90;;;;;;5033262;28;20048;-66
2022/07/22 03:41:29;;;;;;;39.83;7.88;;;14.20;99.90;;;;;;5034688;28;20083;-66
2022/07/22 03:43:56;;;;;;;47.58;6.85;;;14.20;99.90;;;;;;5037197;28;20108;-66
2022/07/22 03:46:21;;;;;;;42.63;8.25;;;14.20;99.90;;;;;;5037361;28;20464;-66
2022/07/22 03:48:47;;;;;;;36.90;7.57;;;14.20;99.90;;;;;;5037254;28;20053;-66
2022/07/22 03:51:12;;;;;;;43.20;8.50;;;14.30;99.90;;;;;;5037248;28;20025;-66
2022/07/22 03:53:38;;;;;;;46.03;8.05;;;14.30;99.90;;;;;;5037099;28;20465;-66
2022/07/22 03:56:04;;;;;;;39.38;7.47;;;14.20;99.90;;;;;;5037388;28;20033;-66
2022/07/22 03:58:29;;;;;;;48.92;9.23;;;14.20;99.90;;;;;;5019571;28;20131;-66
2022/07/22 04:00:55;;;;;;;48.13;8.98;;;14.20;99.90;;;;;;5037292;28;20059;-66
2022/07/22 04:03:21;;;;;;;38.97;8.48;;;14.20;99.90;;;;;;5036781;28;20029;-66
2022/07/22 04:05:46;;;;;;;54.92;9.60;;;14.20;99.90;;;;;;5036825;28;20389;-66
2022/07/22 04:08:12;;;;;;;37.08;8.05;;;14.20;99.90;;;;;;5036860;28;20075;-66
2022/07/22 04:10:38;;;;;;;38.88;7.40;;;14.10;99.90;;;;;;5036712;28;20532;-66
2022/07/22 04:13:04;;;;;;;39.28;8.65;;;14.20;99.90;;;;;;5037042;28;20118;-66
2022/07/22 04:15:30;;;;;;;36.60;7.22;;;14.20;99.90;;;;;;5036571;28;20133;-66
2022/07/22 04:17:55;;;;;;;42.65;9.05;;;14.30;99.90;;;;;;5036638;28;20033;-66
2022/07/22 04:20:21;;;;;;;59.08;9.05;;;14.30;99.90;;;;;;5036670;28;20041;-66
2022/07/22 04:22:47;;;;;;;39.25;8.10;;;14.30;99.90;;;;;;5036626;28;20029;-66
2022/07/22 04:25:12;;;;;;;47.10;8.02;;;14.30;99.90;;;;;;5036443;28;20033;-66
2022/07/22 04:27:38;;;;;;;56.53;8.70;;;14.30;99.90;;;;;;5036680;28;20466;-66
2022/07/22 04:30:04;;;;;;;39.88;7.43;;;14.30;99.90;;;;;;5036537;28;20029;-66
2022/07/22 04:32:30;;;;;;;46.25;7.60;;;14.30;99.90;;;;;;5036727;28;20028;-66
2022/07/22 04:34:55;;;;;;;54.28;7.97;;;14.40;99.90;;;;;;5036424;28;20025;-66
2022/07/22 04:37:21;;;;;;;47.38;8.40;;;14.40;99.90;;;;;;5036351;28;20032;-66
2022/07/22 04:39:46;;;;;;;46.95;7.70;;;14.30;99.90;;;;;;5036209;28;20030;-66
2022/07/22 04:42:12;;;;;;;46.17;7.72;;;14.40;99.90;;;;;;5036432;28;20033;-66
2022/07/22 04:44:37;;;;;;;35.47;7.63;;;14.40;99.90;;;;;;5035931;28;20028;-66
2022/07/22 04:47:03;;;;;;;48.03;8.88;;;14.40;99.90;;;;;;5035964;28;20436;-66
2022/07/22 04:49:29;;;;;;;47.85;6.60;;;14.40;99.90;;;;;;5036337;28;20366;-66
2022/07/22 04:51:54;;;;;;;37.05;7.13;;;14.40;99.90;;;;;;5036348;28;20092;-66
2022/07/22 04:54:20;;;;;;;45.33;8.48;;;14.40;99.90;;;;;;5035369;28;20040;-66
2022/07/22 04:56:45;;;;;;;63.55;9.05;;;14.50;99.90;;;;;;5035884;28;20032;-66
2022/07/22 04:59:11;;;;;;;37.47;7.65;;;14.50;99.90;;;;;;5035935;28;20080;-66
2022/07/22 05:01:37;;;;;;;53.47;7.03;;;14.60;99.90;;;;;;5036204;28;20026;-66
2022/07/22 05:04:03;;;;;;;49.53;6.78;;;14.60;99.90;;;;;;5036119;28;20064;-66
2022/07/22 05:06:28;;;;;;;37.13;8.00;;;14.70;99.90;;;;;;5022781;28;20038;-66
2022/07/22 05:08:54;;;;;;;38.97;6.95;;;14.70;99.90;;;;;;5016295;28;20531;-66
2022/07/22 05:11:20;;;;;;;38.50;6.20;;;14.70;99.90;;;;;;5023793;28;20037;-66
2022/07/22 05:13:45;;;;;;;47.85;7.00;;;14.70;99.90;;;;;;5031348;28;20494;-67
2022/07/22 05:16:11;;;;;;;42.25;6.70;;;14.70;99.90;;;;;;5035880;28;20071;-67
2022/07/22 05:18:37;;;;;;;30.83;6.30;;;14.70;99.90;;;;;;5035644;28;20104;-67
2022/07/22 05:21:03;;;;;;;34.53;5.57;;;14.80;99.90;;;;;;5035547;28;20017;-67
2022/07/22 05:23:29;;;;;;;35.63;5.97;;;14.80;99.90;;;;;;5035973;28;20530;-67
2022/07/22 05:25:55;;;;;;;41.40;7.47;;;14.80;99.90;;;;;;5035291;28;20033;-67
2022/07/22 05:28:20;;;;;;;37.58;5.90;;;14.80;99.90;;;;;;5035675;28;20029;-67
2022/07/22 05:30:46;;;;;;;41.72;6.82;;;14.80;99.90;;;;;;5035375;28;20030;-67
2022/07/22 05:33:11;;;;;;;35.97;5.93;;;14.80;99.90;;;;;;5035303;28;20049;-67
2022/07/22 05:35:37;;;;;;;59.60;7.20;;;14.80;99.90;;;;;;5035289;28;20057;-67
2022/07/22 05:38:03;;;;;;;46.60;6.53;;;15.00;99.90;;;;;;5035349;28;20465;-67
2022/07/22 05:40:29;;;;;;;36.10;6.10;;;14.90;99.90;;;;;;5035413;28;20040;-67
2022/07/22 05:42:54;;;;;;;48.40;8.20;;;15.00;99.90;;;;;;5035371;28;20033;-67
2022/07/22 05:45:20;;;;;;;28.83;5.70;;;15.00;99.90;;;;;;5035998;28;20377;-67
2022/07/22 05:47:46;;;;;;;40.10;6.55;;;15.00;99.90;;;;;;5034928;28;20484;-67
2022/07/22 05:50:11;;;;;;;30.10;5.07;;;15.10;99.90;;;;;;5035016;28;20421;-67
2022/07/22 05:52:38;;;;;;;47.85;5.55;;;15.20;99.90;;;;;;5034942;28;20049;-67
2022/07/22 05:55:04;;;;;;;35.83;5.43;;;15.20;99.90;;;;;;5035062;28;20035;-67
2022/07/22 05:57:30;;;;;;;37.03;6.63;;;15.30;99.90;;;;;;5035143;28;20477;-67
2022/07/22 05:59:55;;;;;;;36.15;6.13;;;15.30;99.90;;;;;;5034777;28;20096;-67
2022/07/22 06:02:21;;;;;;;40.45;6.50;;;15.30;99.90;;;;;;5034626;28;20500;-67
2022/07/22 06:04:47;;;;;;;35.35;4.60;;;15.30;99.90;;;;;;5033630;28;20084;-67
2022/07/22 06:07:12;;;;;;;31.73;5.35;;;15.30;99.90;;;;;;5034940;28;20100;-67
2022/07/22 06:09:38;;;;;;;30.45;4.88;;;15.40;99.90;;;;;;5016845;28;20025;-67
2022/07/22 06:12:04;;;;;;;31.52;4.90;;;15.30;99.90;;;;;;5034686;28;20060;-67
2022/07/22 06:14:29;;;;;;;32.17;4.97;;;15.30;99.90;;;;;;5034327;28;20035;-67
2022/07/22 06:16:55;;;;;;;24.33;4.03;;;15.30;99.90;;;;;;5034494;28;20104;-67
2022/07/22 06:19:21;;;;;;;40.13;5.78;;;15.40;99.90;;;;;;5034453;28;20497;-67
2022/07/22 06:21:46;;;;;;;26.85;4.35;;;15.40;99.90;;;;;;5034643;28;20053;-67
2022/07/22 06:24:12;;;;;;;30.92;4.65;;;15.50;99.90;;;;;;5034274;28;20102;-67
2022/07/22 06:26:38;;;;;;;21.05;3.55;;;15.60;99.90;;;;;;5034174;28;20045;-67
2022/07/22 06:29:03;;;;;;;33.90;5.55;;;15.70;99.90;;;;;;5034265;28;20017;-67
2022/07/22 06:31:29;;;;;;;37.28;6.18;;;15.70;99.90;;;;;;5034480;28;20021;-67
2022/07/22 06:33:54;;;;;;;28.65;4.82;;;15.70;99.90;;;;;;5033931;28;20026;-67
2022/07/22 06:36:20;;;;;;;29.15;5.38;;;15.70;99.90;;;;;;5034134;28;20102;-67
2022/07/22 06:38:46;;;;;;;37.22;4.00;;;15.70;99.90;;;;;;5034352;28;20034;-67
2022/07/22 06:41:13;;;;;;;34.55;4.45;;;15.90;99.90;;;;;;5034019;28;20036;-67
2022/07/22 06:43:39;;;;;;;29.50;4.95;;;15.90;99.90;;;;;;5033704;28;20370;-67
2022/07/22 06:46:05;;;;;;;27.92;4.85;;;16.00;99.90;;;;;;5034115;28;20033;-67
2022/07/22 06:48:30;;;;;;;27.60;4.63;;;15.80;99.90;;;;;;5033902;28;20021;-67
2022/07/22 06:50:56;;;;;;;30.13;5.57;;;16.10;99.90;;;;;;5034215;28;20022;-67
2022/07/22 06:53:22;;;;;;;22.92;3.83;;;16.00;99.90;;;;;;5033811;28;20017;-67
2022/07/22 06:55:47;;;;;;;27.50;5.05;;;16.00;99.90;;;;;;5033663;28;20025;-67
2022/07/22 06:58:13;;;;;;;34.80;5.70;;;15.90;99.90;;;;;;5033781;28;20059;-67
2022/07/22 07:00:39;;;;;;;17.02;3.92;;;16.00;99.90;;;;;;5033894;28;20033;-67
2022/07/22 07:03:04;;;;;;;22.90;3.70;;;15.90;99.90;;;;;;5033850;28;20041;-67
2022/07/22 07:05:30;;;;;;;32.83;5.47;;;15.90;99.90;;;;;;5033484;28;20474;-67
2022/07/22 07:07:56;;;;;;;38.75;4.38;;;15.80;99.90;;;;;;5034488;28;20339;-67
2022/07/22 07:10:22;;;;;;;38.20;4.93;;;15.70;99.90;;;;;;5033578;28;20482;-67
2022/07/22 07:12:47;;;;;;;19.05;3.35;;;15.70;99.90;;;;;;5033595;28;20079;-67
2022/07/22 07:15:14;;;;;;;27.45;3.90;;;15.70;99.90;;;;;;5071875;23;20099;-70
2022/07/22 07:17:39;;;;;;;23.67;3.55;;;15.70;99.90;;;;;;5033283;28;20413;-70
2022/07/22 07:20:06;;;;;;;23.38;3.42;;;15.70;99.90;;;;;;5033541;28;20068;-70
2022/07/22 07:22:32;;;;;;;29.90;4.88;;;15.80;99.90;;;;;;5034000;28;20431;-70
2022/07/22 07:25:04;;;;;;;28.52;5.70;;;15.70;99.90;;;;;;5033842;28;20036;-69
2022/07/22 07:27:31;;;;;;;25.70;3.35;;;15.70;99.90;;;;;;5034985;28;20557;-69
2022/07/22 07:29:57;;;;;;;24.83;3.75;;;15.70;99.90;;;;;;5034335;28;20017;-69
2022/07/22 07:32:22;;;;;;;28.42;4.57;;;15.60;99.90;;;;;;5033755;28;20108;-70
2022/07/22 07:34:48;;;;;;;27.58;4.53;;;15.80;99.90;;;;;;5031904;28;20029;-69
2022/07/22 07:37:13;;;;;;;29.52;4.65;;;15.80;99.90;;;;;;5033448;28;20025;-70
2022/07/22 07:39:39;;;;;;;24.38;3.30;;;15.80;99.90;;;;;;5033415;28;20028;-70
2022/07/22 07:42:05;;;;;;;24.20;3.08;;;15.90;99.90;;;;;;5033674;28;20104;-70
2022/07/22 07:44:30;;;;;;;28.00;4.20;;;16.10;99.90;;;;;;5032062;28;20493;-70
2022/07/22 07:46:56;;;;;;;15.48;2.95;;;16.20;99.90;;;;;;5033112;28;20025;-70
2022/07/22 07:49:21;;;;;;;20.25;2.92;;;16.30;99.90;;;;;;5033259;28;20025;-70
2022/07/22 07:51:47;;;;;;;22.98;3.40;;;16.30;99.90;;;;;;5033841;28;20029;-70
2022/07/22 07:54:13;;;;;;;22.85;4.25;;;16.20;99.90;;;;;;5032998;28;20026;-70
2022/07/22 07:56:38;;;;;;;16.60;3.50;;;16.20;99.90;;;;;;5033468;28;20029;-70
2022/07/22 07:59:04;;;;;;;23.13;3.35;;;16.20;99.90;;;;;;5033103;28;20501;-70
2022/07/22 08:01:29;;;;;;;16.27;2.72;;;16.30;99.90;;;;;;5031818;28;20500;-70
2022/07/22 08:03:55;;;;;;;24.83;4.82;;;16.50;99.90;;;;;;5033122;28;20460;-70
2022/07/22 08:06:20;;;;;;;22.33;2.95;;;16.70;99.90;;;;;;5033199;28;20026;-69
2022/07/22 08:08:46;;;;;;;25.08;2.47;;;16.70;99.90;;;;;;5033200;28;20026;-70
2022/07/22 08:11:12;;;;;;;12.48;2.80;;;16.60;99.90;;;;;;5033037;28;20025;-70
2022/07/22 08:13:37;;;;;;;16.75;3.05;;;16.40;99.90;;;;;;5032991;28;20025;-70
2022/07/22 08:16:03;;;;;;;19.70;3.13;;;16.30;99.90;;;;;;5033383;28;20083;-70
2022/07/22 08:18:29;;;;;;;22.48;3.28;;;16.20;99.90;;;;;;5033593;28;20109;-70
2022/07/22 08:20:56;;;;;;;21.65;3.40;;;16.20;99.90;;;;;;5032982;28;20021;-70
2022/07/22 08:23:21;;;;;;;21.95;3.67;;;16.10;99.90;;;;;;5032975;28;20052;-71
2022/07/22 08:25:47;;;;;;;30.83;3.65;;;16.10;99.90;;;;;;5032894;28;20033;-70
2022/07/22 08:28:13;;;;;;;16.33;3.17;;;16.10;99.90;;;;;;5033797;28;20367;-70
2022/07/22 08:30:40;;;;;;;19.92;3.38;;;16.20;99.90;;;;;;5036914;28;20030;-70
2022/07/22 08:33:06;;;;;;;19.15;3.90;;;16.30;99.90;;;;;;5036500;28;20026;-70
2022/07/22 08:35:32;;;;;;;28.25;4.18;;;16.50;99.90;;;;;;5036755;28;20025;-70
2022/07/22 08:37:57;;;;;;;15.15;3.30;;;16.60;99.90;;;;;;5036764;28;20037;-70
2022/07/22 08:40:23;;;;;;;18.30;3.35;;;16.70;99.90;;;;;;5036747;28;20491;-70
2022/07/22 08:42:50;;;;;;;14.80;2.60;;;16.90;99.90;;;;;;5037032;28;20481;-71
2022/07/22 08:45:16;;;;;;;17.98;2.15;;;16.90;99.90;;;;;;5036586;28;20021;-70
2022/07/22 08:47:47;;;;;;;14.18;2.28;;;16.80;99.90;;;;;;5036324;28;20108;-71
2022/07/22 08:50:13;;;;;;;19.05;2.78;;;16.90;99.90;;;;;;5036271;28;20020;-70
2022/07/22 08:52:38;;;;;;;15.45;3.13;;;16.80;99.90;;;;;;5036223;28;20477;-71
2022/07/22 08:55:06;;;;;;;18.90;3.15;;;16.60;99.90;;;;;;5036320;28;20048;-71
2022/07/22 08:57:31;;;;;;;26.02;2.83;;;16.60;99.90;;;;;;5036545;28;20048;-71
2022/07/22 08:59:58;;;;;;;21.25;3.08;;;16.50;99.90;;;;;;5036361;28;20515;-71
2022/07/22 09:02:24;;;;;;;22.02;2.92;;;16.30;99.90;;;;;;5036283;28;20462;-71
2022/07/22 09:04:55;;;;;;;20.33;3.45;;;16.20;99.90;;;;;;5036118;28;20053;-71
2022/07/22 09:07:46;;;;;;;23.58;3.35;;;16.30;99.90;;;;;;5036131;28;20071;-71
2022/07/22 09:10:15;;;;;;;21.50;3.58;;;16.20;99.90;;;;;;5033949;28;20108;-71
2022/07/22 09:12:59;;;;;;;18.13;3.28;;;16.30;99.90;;;;;;5035776;28;20469;-71
2022/07/22 09:15:36;;;;;;;20.95;3.28;;;16.50;99.90;;;;;;5035798;28;20477;-71
2022/07/22 09:18:03;;;;;;;19.17;2.58;;;16.80;99.90;;;;;;5036004;28;20505;-71
2022/07/22 09:20:29;;;;;;;16.55;2.50;;;17.00;99.90;;;;;;5036120;28;20116;-71
2022/07/22 09:22:55;;;;;;;15.07;1.95;;;17.30;99.90;;;;;;5034319;28;20163;-71
2022/07/22 09:25:41;;;;;;;16.15;2.20;;;17.60;99.90;;;;;;5035525;28;20104;-71
2022/07/22 09:28:07;;;;;;;22.30;2.15;;;17.60;99.90;;;;;;5035489;28;20069;-71
2022/07/22 09:30:36;;;;;;;31.90;2.45;;;17.50;99.90;;;;;;5035625;28;20053;-71
2022/07/22 09:33:02;;;;;;;23.17;2.70;;;17.50;99.90;;;;;;5035400;28;20493;-71
2022/07/22 09:35:28;;;;;;;20.17;2.35;;;17.40;99.90;;;;;;5035484;28;20046;-71
2022/07/22 09:38:03;;;;;;;32.22;3.83;;;17.30;99.90;;;;;;5035471;28;20032;-70
2022/07/22 09:40:35;;;;;;;21.10;2.58;;;17.20;99.90;;;;;;5035539;28;20018;-72
2022/07/22 09:43:03;;;;;;;23.20;3.22;;;17.40;99.90;;;;;;5035385;28;20444;-72
2022/07/22 09:45:31;;;;;;;18.98;3.20;;;17.40;99.90;;;;;;5035309;28;20033;-72
2022/07/22 09:47:58;;;;;;;16.77;3.20;;;17.30;99.90;;;;;;5035856;28;20114;-71
2022/07/22 09:50:32;;;;;;;16.15;3.60;;;17.20;99.90;;;;;;5036121;28;20409;-71
2022/07/22 09:52:59;;;;;;;14.82;2.55;;;17.50;99.90;;;;;;5037127;28;20026;-70
2022/07/22 09:55:27;;;;;;;13.15;2.35;;;17.60;99.90;;;;;;5035332;28;20026;-72
2022/07/22 09:57:54;;;;;;;8.52;2.00;;;17.60;99.90;;;;;;5035307;28;20050;-71
2022/07/22 10:00:23;;;;;;;10.23;2.22;;;17.70;99.90;;;;;;5035221;28;20033;-71
2022/07/22 10:02:52;;;;;;;15.02;2.45;;;17.70;99.90;;;;;;5034959;28;20033;-71
2022/07/22 10:05:23;;;;;;;13.90;2.42;;;17.70;99.90;;;;;;5034911;28;20040;-71
2022/07/22 10:07:50;;;;;;;16.77;2.63;;;17.70;99.90;;;;;;5035053;28;20489;-71
2022/07/22 10:10:19;;;;;;;16.20;2.53;;;17.50;99.90;;;;;;5035128;28;20026;-71
2022/07/22 10:12:48;;;;;;;11.88;2.30;;;17.50;99.90;;;;;;5034824;28;20072;-71
2022/07/22 10:15:14;;;;;;;10.13;1.67;;;17.60;99.90;;;;;;5034876;28;20048;-71
2022/07/22 10:17:49;;;;;;;14.23;2.78;;;17.70;99.90;;;;;;5034833;28;20393;-71
2022/07/22 10:20:26;;;;;;;18.15;2.63;;;17.60;99.90;;;;;;5035064;28;20021;-71
2022/07/22 10:23:00;;;;;;;16.88;3.55;;;17.60;99.90;;;;;;5034571;28;20026;-71
2022/07/22 10:25:28;;;;;;;15.32;2.42;;;17.80;99.90;;;;;;5034635;28;20033;-71
2022/07/22 10:27:54;;;;;;;14.23;2.22;;;17.80;99.90;;;;;;5034839;28;20052;-71
2022/07/22 10:30:28;;;;;;;14.85;2.05;;;17.90;99.90;;;;;;5034804;28;20055;-71
2022/07/22 10:33:17;;;;;;;13.68;3.17;;;17.70;99.90;;;;;;5034983;28;20016;-71
2022/07/22 10:35:42;;;;;;;11.88;2.50;;;17.40;99.90;;;;;;5034565;28;20072;-71
2022/07/22 10:38:10;;;;;;;13.40;2.53;;;17.30;99.90;;;;;;5034411;28;20048;-72
2022/07/22 10:40:55;;;;;;;14.73;2.78;;;17.10;99.90;;;;;;5034378;28;20095;-72
2022/07/22 10:43:43;;;;;;;17.23;2.75;;;17.00;99.90;;;;;;5034462;28;20021;-72
2022/07/22 10:46:09;;;;;;;18.85;3.65;;;17.10;99.90;;;;;;5034869;28;20457;-71
2022/07/22 10:48:37;;;;;;;15.02;3.30;;;17.10;99.90;;;;;;5034303;28;20053;-72
2022/07/22 10:51:10;;;;;;;18.80;3.63;;;17.30;99.90;;;;;;5033726;28;20026;-71
2022/07/22 10:53:43;;;;;;;11.88;2.17;;;17.30;99.90;;;;;;5034450;28;20108;-72
2022/07/22 10:56:16;;;;;;;13.20;2.10;;;17.30;99.90;;;;;;5034184;28;20029;-71
2022/07/22 10:58:44;;;;;;;14.68;2.47;;;17.50;99.90;;;;;;5034352;28;20376;-71
2022/07/22 11:01:13;;;;;;;10.50;1.85;;;17.50;99.90;;;;;;5034116;28;20473;-71
2022/07/22 11:03:41;;;;;;;14.38;2.30;;;17.80;99.90;;;;;;5033695;28;20112;-71
2022/07/22 11:06:17;;;;;;;7.72;1.90;;;17.80;99.90;;;;;;5033496;28;20028;-70
2022/07/22 11:08:44;;;;;;;21.40;2.45;;;18.00;99.90;;;;;;5033787;28;20025;-71
2022/07/22 11:11:10;;;;;;;13.73;2.05;;;17.90;99.90;;;;;;5033955;28;20026;-72
2022/07/22 11:13:38;;;;;;;22.60;3.25;;;17.50;99.90;;;;;;5032356;28;20028;-70
2022/07/22 11:16:24;;;;;;;25.77;4.85;;;17.30;99.90;;;;;;5033591;28;20029;-71
2022/07/22 11:19:08;;;;;;;19.90;2.65;;;17.10;99.90;;;;;;5014071;28;20026;-71
2022/07/22 11:21:34;;;;;;;16.00;2.72;;;17.10;99.90;;;;;;5013941;28;20026;-70
2022/07/22 11:24:03;;;;;;;11.82;2.47;;;17.10;99.90;;;;;;5013835;28;20030;-71
2022/07/22 11:26:50;;;;;;;17.48;2.40;;;17.20;99.90;;;;;;5013793;28;20030;-71
2022/07/22 11:29:24;;;;;;;24.10;3.25;;;17.20;99.90;;;;;;5014799;28;20406;-71
2022/07/22 11:31:49;;;;;;;14.60;2.67;;;17.20;99.90;;;;;;5013784;28;20025;-71
2022/07/22 11:34:16;;;;;;;16.17;2.70;;;17.20;99.90;;;;;;5030173;28;20025;-71
2022/07/22 11:36:44;;;;;;;17.65;3.13;;;17.10;99.90;;;;;;5033435;28;20432;-71
2022/07/22 11:39:11;;;;;;;16.33;2.70;;;17.20;99.90;;;;;;5033459;28;20087;-71
2022/07/22 11:41:38;;;;;;;17.48;2.33;;;17.20;99.90;;;;;;5033330;28;20176;-70
2022/07/22 11:44:05;;;;;;;15.88;2.80;;;17.10;99.90;;;;;;5033637;28;20026;-71
2022/07/22 11:46:41;;;;;;;12.23;2.15;;;17.10;99.90;;;;;;5033563;28;20061;-71
2022/07/22 11:49:09;;;;;;;20.48;2.78;;;17.10;99.90;;;;;;5033362;28;20190;-71
2022/07/22 11:51:37;;;;;;;13.52;2.33;;;17.10;99.90;;;;;;5033151;28;20101;-70
2022/07/22 11:54:04;;;;;;;10.45;2.45;;;17.10;99.90;;;;;;5033299;28;20022;-71
2022/07/22 11:56:31;;;;;;;8.65;2.03;;;17.20;99.90;;;;;;5033232;28;20025;-71
2022/07/22 11:58:57;;;;;;;15.55;2.28;;;17.20;99.90;;;;;;5033256;28;20490;-71
2022/07/22 12:01:25;;;;;;;16.92;2.70;;;17.20;99.90;;;;;;5033547;28;20026;-71
2022/07/22 12:04:01;;;;;;;16.88;3.15;;;17.50;99.90;;;;;;5036659;28;20161;-71
2022/07/22 12:06:28;;;;;;;10.00;2.50;;;17.30;99.90;;;;;;5037192;28;20179;-71
2022/07/22 12:09:15;;;;;;;14.10;2.05;;;17.20;99.90;;;;;;5037690;28;20104;-71
2022/07/22 12:11:44;;;;;;;12.50;2.40;;;17.20;99.90;;;;;;5036972;28;20494;-71
2022/07/22 12:14:12;;;;;;;14.85;2.28;;;17.40;99.90;;;;;;5037719;28;20494;-71
2022/07/22 12:16:38;;;;;;;6.43;2.00;;;17.40;99.90;;;;;;5037504;28;20061;-71
2022/07/22 12:19:09;;;;;;;14.45;2.15;;;17.40;99.90;;;;;;5037270;28;20037;-71
2022/07/22 12:21:57;;;;;;;7.45;1.77;;;17.40;99.90;;;;;;5036409;28;20104;-71
2022/07/22 12:24:42;;;;;;;9.30;2.25;;;17.40;99.90;;;;;;5036012;28;20091;-71
2022/07/22 12:27:12;;;;;;;18.60;2.42;;;17.50;99.90;;;;;;5037029;28;20385;-71
2022/07/22 12:29:38;;;;;;;11.00;2.03;;;17.40;99.90;;;;;;5036966;28;20040;-71
2022/07/22 12:32:04;;;;;;;12.80;2.15;;;17.40;99.90;;;;;;5036911;28;20385;-71
2022/07/22 12:34:36;;;;;;;8.75;1.92;;;17.40;99.90;;;;;;5036571;28;20075;-71